Latest Weather Observations for Fort Denison

IDN60901

Issued at 7:35 pm EDT Sunday 23 November 2014 (issued every 10 minutes, with the page automatically refreshed every 10 minutes)

About weather observations | Map of Sydney area stations | Latest observations for Sydney area | Other Formats
Station Details ID: 066022 Name: FORT DENISON Lat: -33.86 Lon: 151.23 Height: 5.0 m
Data from the previous 72 hours. | See also: Recent months for locations in New South Wales
Date/Time
EDT
Tmp

°C
App
Tmp
°C
Dew
Point
°C
Rel
Hum
%
Delta-T

°C
Wind Press
QNH
hPa
Press
MSL
hPa
Rain
since
9 am
mm
Dir
 
Spd
km/h
Gust
km/h
Spd
kts
Gust
kts
23/07:30pm - - - - - SSE 19 26 10 14 - - -
23/07:00pm - - - - - SSE 26 35 14 19 - - -
23/06:30pm - - - - - SE 22 39 12 21 - - -
23/06:00pm - - - - - ESE 22 30 12 16 - - -
23/05:30pm - - - - - E 20 24 11 13 - - -
23/05:05pm - - - - - E 37 43 20 23 - - -
23/05:00pm - - - - - ESE 17 28 9 15 - - -
23/04:30pm - - - - - ESE 28 39 15 21 - - -
23/04:00pm - - - - - ESE 26 33 14 18 - - -
23/03:30pm - - - - - E 22 28 12 15 - - -
23/03:00pm - - - - - E 22 30 12 16 - - -
23/02:30pm - - - - - E 19 24 10 13 - - -
23/02:00pm - - - - - E 24 30 13 16 - - -
23/01:30pm - - - - - ESE 22 26 12 14 - - -
23/01:00pm - - - - - E 19 24 10 13 - - -
23/12:30pm - - - - - E 19 22 10 12 - - -
23/12:00pm - - - - - E 19 22 10 12 - - -
23/11:30am - - - - - E 20 24 11 13 - - -
23/11:00am - - - - - E 20 24 11 13 - - -
23/10:30am - - - - - E 20 22 11 12 - - -
23/10:00am - - - - - E 17 19 9 10 - - -
23/09:30am - - - - - E 9 11 5 6 - - -
23/09:00am - - - - - E 4 6 2 3 - - -
23/08:30am - - - - - E 4 7 2 4 - - -
23/08:00am - - - - - SSE 4 6 2 3 - - -
23/07:30am - - - - - N 6 9 3 5 - - -
23/07:00am - - - - - NE 2 6 1 3 - - -
23/06:30am - - - - - N 6 7 3 4 - - -
23/06:00am - - - - - NNW 6 7 3 4 - - -
23/05:30am - - - - - N 9 13 5 7 - - -
23/05:00am - - - - - N 11 15 6 8 - - -
23/04:30am - - - - - NNW 7 9 4 5 - - -
23/04:00am - - - - - NNE 7 9 4 5 - - -
23/03:30am - - - - - N 7 9 4 5 - - -
23/03:00am - - - - - NE 4 6 2 3 - - -
23/02:30am - - - - - N 7 11 4 6 - - -
23/02:00am - - - - - N 7 11 4 6 - - -
23/01:30am - - - - - N 4 6 2 3 - - -
23/01:00am - - - - - NNW 4 7 2 4 - - -
23/12:30am - - - - - WNW 7 9 4 5 - - -
23/12:00am - - - - - N 9 15 5 8 - - -
 
Date/Time
EDT
Tmp

°C
App
Tmp
°C
Dew
Point
°C
Rel
Hum
%
Delta-T

°C
Wind Press
QNH
hPa
Press
MSL
hPa
Rain
since
9 am
mm
Dir
 
Spd
km/h
Gust
km/h
Spd
kts
Gust
kts
22/11:30pm - - - - - NNE 9 11 5 6 - - -
22/11:00pm - - - - - N 7 11 4 6 - - -
22/10:30pm - - - - - NE 9 13 5 7 - - -
22/10:00pm - - - - - NE 9 17 5 9 - - -
22/09:30pm - - - - - NNE 13 19 7 10 - - -
22/09:00pm - - - - - NE 11 19 6 10 - - -
22/08:30pm - - - - - NE 9 15 5 8 - - -
22/08:00pm - - - - - ENE 15 20 8 11 - - -
22/07:30pm - - - - - ENE 17 22 9 12 - - -
22/07:00pm - - - - - ENE 19 22 10 12 - - -
22/06:30pm - - - - - E 17 22 9 12 - - -
22/06:00pm - - - - - E 22 28 12 15 - - -
22/05:30pm - - - - - E 20 24 11 13 - - -
22/05:00pm - - - - - E 20 26 11 14 - - -
22/04:30pm - - - - - E 22 30 12 16 - - -
22/04:00pm - - - - - E 20 26 11 14 - - -
22/03:30pm - - - - - E 20 24 11 13 - - -
22/03:00pm - - - - - E 19 24 10 13 - - -
22/02:30pm - - - - - ESE 22 26 12 14 - - -
22/02:00pm - - - - - E 19 22 10 12 - - -
22/01:30pm - - - - - ESE 19 22 10 12 - - -
22/01:00pm - - - - - E 19 22 10 12 - - -
22/12:30pm - - - - - ESE 17 20 9 11 - - -
22/12:00pm - - - - - E 17 19 9 10 - - -
22/11:30am - - - - - E 9 13 5 7 - - -
22/11:00am - - - - - E 17 22 9 12 - - -
22/10:30am - - - - - E 13 17 7 9 - - -
22/10:00am - - - - - ENE 7 11 4 6 - - -
22/09:30am - - - - - E 7 11 4 6 - - -
22/09:00am - - - - - SE 9 13 5 7 - - -
22/08:30am - - - - - SSE 7 17 4 9 - - -
22/08:00am - - - - - SSE 11 17 6 9 - - -
22/07:30am - - - - - SSE 13 20 7 11 - - -
22/07:00am - - - - - SSE 11 17 6 9 - - -
22/06:30am - - - - - SSE 9 13 5 7 - - -
22/06:00am - - - - - S 7 15 4 8 - - -
22/05:30am - - - - - S 11 19 6 10 - - -
22/05:00am - - - - - S 11 17 6 9 - - -
22/04:30am - - - - - S 13 20 7 11 - - -
22/04:00am - - - - - S 15 22 8 12 - - -
22/03:30am - - - - - S 15 24 8 13 - - -
22/03:00am - - - - - S 15 28 8 15 - - -
22/02:30am - - - - - S 17 30 9 16 - - -
22/02:00am - - - - - S 19 30 10 16 - - -
22/01:30am - - - - - S 19 28 10 15 - - -
22/01:00am - - - - - S 17 26 9 14 - - -
22/12:30am - - - - - S 19 32 10 17 - - -
22/12:00am - - - - - S 20 37 11 20 - - -
 
Date/Time
EDT
Tmp

°C
App
Tmp
°C
Dew
Point
°C
Rel
Hum
%
Delta-T

°C
Wind Press
QNH
hPa
Press
MSL
hPa
Rain
since
9 am
mm
Dir
 
Spd
km/h
Gust
km/h
Spd
kts
Gust
kts
21/11:30pm - - - - - S 19 37 10 20 - - -
21/11:00pm - - - - - S 24 43 13 23 - - -
21/10:30pm - - - - - S 22 43 12 23 - - -
21/10:00pm - - - - - S 15 33 8 18 - - -
21/09:30pm - - - - - S 26 48 14 26 - - -
21/09:00pm - - - - - S 30 50 16 27 - - -
21/08:32pm - - - - - S 30 48 16 26 - - -
21/08:30pm - - - - - S 30 46 16 25 - - -
21/08:00pm - - - - - S 32 52 17 28 - - -
21/07:49pm - - - - - S 30 54 16 29 - - -
21/07:30pm - - - - - S 30 44 16 24 - - -
21/07:15pm - - - - - S 28 46 15 25 - - -
21/07:00pm - - - - - SSE 28 44 15 24 - - -
21/06:30pm - - - - - S 28 44 15 24 - - -
21/06:07pm - - - - - SSE 28 48 15 26 - - -
21/06:00pm - - - - - SSE 20 35 11 19 - - -
21/05:30pm - - - - - E 11 17 6 9 - - -
21/05:00pm - - - - - ESE 13 15 7 8 - - -
21/04:30pm - - - - - ESE 17 22 9 12 - - -
21/04:00pm - - - - - ESE 17 24 9 13 - - -
21/03:30pm - - - - - E 17 24 9 13 - - -
21/03:00pm - - - - - E 22 32 12 17 - - -
21/02:30pm - - - - - E 24 32 13 17 - - -
21/02:00pm - - - - - E 26 33 14 18 - - -
21/01:30pm - - - - - E 22 28 12 15 - - -
21/01:00pm - - - - - E 15 20 8 11 - - -
21/12:30pm - - - - - E 15 20 8 11 - - -
21/12:00pm - - - - - E 17 20 9 11 - - -
21/11:30am - - - - - ESE 20 24 11 13 - - -
21/11:00am - - - - - ESE 20 24 11 13 - - -
21/10:30am - - - - - ESE 19 22 10 12 - - -
21/10:00am - - - - - ESE 15 17 8 9 - - -
21/09:30am - - - - - ESE 9 11 5 6 - - -
21/09:00am - - - - - SSE 7 9 4 5 - - -
21/08:30am - - - - - E 7 9 4 5 - - -
21/08:00am - - - - - E 4 7 2 4 - - -
21/07:30am - - - - - N 2 6 1 3 - - -
21/07:00am - - - - - NNW 6 9 3 5 - - -
21/06:30am - - - - - S 6 11 3 6 - - -
21/06:00am - - - - - W 17 26 9 14 - - -
21/05:30am - - - - - W 26 32 14 17 - - -
21/05:24am - - - - - NNW 35 43 19 23 - - -
21/05:00am - - - - - W 13 24 7 13 - - -
21/04:43am - - - - - W 32 41 17 22 - - -
21/04:30am - - - - - WNW 6 11 3 6 - - -
21/04:00am - - - - - WNW 7 13 4 7 - - -
21/03:30am - - - - - W 15 19 8 10 - - -
21/03:00am - - - - - W 2 4 1 2 - - -
21/02:30am - - - - - CALM 0 2 0 1 - - -
21/02:00am - - - - - ESE 2 4 1 2 - - -
21/01:30am - - - - - E 2 4 1 2 - - -
21/01:00am - - - - - E 2 4 1 2 - - -
21/12:30am - - - - - E 4 6 2 3 - - -
21/12:00am - - - - - E 4 6 2 3 - - -
 
Date/Time
EDT
Tmp

°C
App
Tmp
°C
Dew
Point
°C
Rel
Hum
%
Delta-T

°C
Wind Press
QNH
hPa
Press
MSL
hPa
Rain
since
9 am
mm
Dir
 
Spd
km/h
Gust
km/h
Spd
kts
Gust
kts
20/11:30pm - - - - - E 7 9 4 5 - - -
20/11:00pm - - - - - NNE 2 6 1 3 - - -
20/10:30pm - - - - - ESE 7 11 4 6 - - -
20/10:00pm - - - - - ENE 9 19 5 10 - - -
20/09:30pm - - - - - NE 13 24 7 13 - - -
20/09:00pm - - - - - NE 15 22 8 12 - - -
20/08:30pm - - - - - NE 19 26 10 14 - - -
20/08:00pm - - - - - NE 20 33 11 18 - - -

Latest Capital City Observations: Canberra | Sydney | Melbourne | Brisbane | Adelaide | Perth | Hobart | Darwin

Other Formats:

Comma delimited format used in spreadsheet applications
http://www.bom.gov.au/fwo/IDN60901/IDN60901.94769.axf

JavaScript Object Notation format (JSON) in row-major order
http://www.bom.gov.au/fwo/IDN60901/IDN60901.94769.json